Time;durP1;ratioP1;P1;durP2;ratioP2;P2;SDS_P1;SDS_P2;PMS_P1;PMS_P2;Temp;Humidity;BMP_temperature;BMP_pressure;BME280_temperature;BME280_humidity;BME280_pressure;Samples;Min_cycle;Max_cycle;Signal;HPM_P1;HPM_P2
2021/06/04 00:00:36;;;;;;;5.22;1.30;;;26.10;40.20;;;;;;5070373;28;20368;-77
2021/06/04 00:03:13;;;;;;;4.80;1.80;;;26.30;40.30;;;;;;5048846;28;20171;-76
2021/06/04 00:05:44;;;;;;;7.25;1.92;;;26.30;40.70;;;;;;5070037;28;20033;-76
2021/06/04 00:08:12;;;;;;;7.43;1.75;;;26.40;40.20;;;;;;5069854;28;20024;-76
2021/06/04 00:10:49;;;;;;;4.97;1.52;;;26.50;40.10;;;;;;5073080;28;20102;-77
2021/06/04 00:13:32;;;;;;;4.90;1.00;;;26.60;39.80;;;;;;5070148;28;20499;-76
2021/06/04 00:16:07;;;;;;;4.97;1.75;;;26.50;39.70;;;;;;5073405;28;20033;-77
2021/06/04 00:18:37;;;;;;;5.20;1.55;;;26.50;38.90;;;;;;5056578;28;20063;-76
2021/06/04 00:21:09;;;;;;;2.92;1.25;;;26.30;39.10;;;;;;5072581;28;20031;-78
2021/06/04 00:23:36;;;;;;;4.78;1.52;;;26.30;39.00;;;;;;5067636;28;20151;-78
2021/06/04 00:26:04;;;;;;;5.97;1.70;;;26.20;39.20;;;;;;5067408;28;20036;-76
2021/06/04 00:28:31;;;;;;;8.23;1.15;;;25.90;39.30;;;;;;5069774;28;20107;-76
2021/06/04 00:30:57;;;;;;;4.78;1.23;;;25.80;40.80;;;;;;5069281;28;20048;-76
2021/06/04 00:33:24;;;;;;;6.43;1.50;;;25.80;40.10;;;;;;5068284;28;20036;-76
2021/06/04 00:35:51;;;;;;;4.15;1.27;;;25.90;40.10;;;;;;5068630;28;20107;-76
2021/06/04 00:38:18;;;;;;;2.80;1.23;;;25.90;40.00;;;;;;5071404;28;20452;-77
2021/06/04 00:40:50;;;;;;;2.30;0.98;;;25.90;40.50;;;;;;5075607;28;20052;-76
2021/06/04 00:43:17;;;;;;;5.63;1.90;;;25.70;40.80;;;;;;5077657;28;20036;-76
2021/06/04 00:45:48;;;;;;;4.30;1.00;;;25.60;40.60;;;;;;5088197;28;20411;-76
2021/06/04 00:48:15;;;;;;;4.03;1.60;;;25.70;41.10;;;;;;5072438;28;20025;-76
2021/06/04 00:51:04;;;;;;;5.10;1.27;;;25.50;41.20;;;;;;5064920;28;20082;-76
2021/06/04 00:53:31;;;;;;;5.88;1.08;;;25.50;40.90;;;;;;5069291;28;20024;-76
2021/06/04 00:55:58;;;;;;;2.72;1.27;;;25.50;40.50;;;;;;5065370;28;20027;-76
2021/06/04 00:58:33;;;;;;;5.88;2.20;;;25.50;40.40;;;;;;5065561;28;20031;-76
2021/06/04 01:01:01;;;;;;;5.80;1.20;;;25.40;40.50;;;;;;5048403;28;20033;-77
2021/06/04 01:03:32;;;;;;;2.58;1.65;;;25.40;40.30;;;;;;5065650;28;20017;-77
2021/06/04 01:06:24;;;;;;;4.28;1.35;;;25.20;40.20;;;;;;5065431;28;20043;-76
2021/06/04 01:09:00;;;;;;;5.10;1.50;;;25.20;40.40;;;;;;5063795;28;20402;-76
2021/06/04 01:11:26;;;;;;;3.13;1.52;;;25.20;40.50;;;;;;5064904;28;20040;-76
2021/06/04 01:14:24;;;;;;;5.75;1.60;;;25.10;41.10;;;;;;5060651;28;20364;-75
2021/06/04 01:17:05;;;;;;;3.28;1.02;;;25.30;40.20;;;;;;5035324;28;20442;-77
2021/06/04 01:19:39;;;;;;;3.00;1.60;;;25.40;40.60;;;;;;5074089;28;20020;-76
2021/06/04 01:22:15;;;;;;;3.92;1.15;;;25.40;41.50;;;;;;5074652;28;20056;-77
2021/06/04 01:25:00;;;;;;;5.45;0.98;;;25.30;42.00;;;;;;5055995;28;20104;-76
2021/06/04 01:27:33;;;;;;;4.38;1.65;;;25.40;42.10;;;;;;5070974;28;20101;-76
2021/06/04 01:30:22;;;;;;;4.32;1.52;;;25.50;41.50;;;;;;5065724;28;20025;-76
2021/06/04 01:32:51;;;;;;;5.85;1.42;;;25.90;40.30;;;;;;5073945;28;20020;-76
2021/06/04 01:35:45;;;;;;;6.10;1.05;;;25.70;41.10;;;;;;5064494;28;20033;-76
2021/06/04 01:38:15;;;;;;;7.63;2.33;;;25.80;41.80;;;;;;5057382;28;20076;-76
2021/06/04 01:40:45;;;;;;;7.43;1.38;;;26.10;39.20;;;;;;5066891;28;20025;-75
2021/06/04 01:43:19;;;;;;;6.07;1.77;;;26.30;37.40;;;;;;5063937;28;20519;-76
2021/06/04 01:45:53;;;;;;;5.70;1.52;;;26.30;37.50;;;;;;5062686;28;20483;-75
2021/06/04 01:48:27;;;;;;;5.40;1.80;;;26.20;37.40;;;;;;5071807;28;20020;-77
2021/06/04 01:51:17;;;;;;;2.45;1.15;;;26.10;37.40;;;;;;5073011;28;20074;-76
2021/06/04 01:54:06;;;;;;;4.63;1.75;;;26.00;37.20;;;;;;5065193;28;20472;-76
2021/06/04 01:56:41;;;;;;;10.70;1.52;;;25.90;37.70;;;;;;5066665;28;20484;-76
2021/06/04 01:59:34;;;;;;;6.60;1.92;;;25.70;38.00;;;;;;5072749;28;20032;-77
2021/06/04 02:02:01;;;;;;;6.03;1.58;;;25.30;38.60;;;;;;5053270;28;20559;-76
2021/06/04 02:04:37;;;;;;;12.00;1.95;;;24.80;39.40;;;;;;5066695;28;20060;-77
2021/06/04 02:07:11;;;;;;;4.00;1.55;;;24.60;39.40;;;;;;5063402;28;20035;-76
2021/06/04 02:09:37;;;;;;;4.97;1.38;;;24.50;39.70;;;;;;5065267;28;20028;-76
2021/06/04 02:12:05;;;;;;;4.95;1.60;;;24.50;39.60;;;;;;5065330;28;20017;-76
2021/06/04 02:14:38;;;;;;;5.93;1.42;;;24.40;39.80;;;;;;5063927;28;20036;-76
2021/06/04 02:17:34;;;;;;;7.03;1.60;;;24.20;40.00;;;;;;5063720;28;20021;-78
2021/06/04 02:20:23;;;;;;;4.15;1.52;;;24.20;40.00;;;;;;5064543;28;20031;-78
2021/06/04 02:23:05;;;;;;;6.57;1.70;;;24.00;40.40;;;;;;5057436;28;20036;-75
2021/06/04 02:25:52;;;;;;;5.75;2.20;;;23.80;40.80;;;;;;5065339;28;20364;-76
2021/06/04 02:28:28;;;;;;;5.38;1.92;;;23.60;41.40;;;;;;5070754;28;20110;-76
2021/06/04 02:31:33;;;;;;;9.48;2.30;;;23.60;40.90;;;;;;5072090;28;20020;-76
2021/06/04 02:34:11;;;;;;;3.58;1.25;;;23.40;41.30;;;;;;5052992;28;20346;-76
2021/06/04 02:36:52;;;;;;;7.97;1.73;;;23.30;41.70;;;;;;5065638;28;20032;-77
2021/06/04 02:39:52;;;;;;;13.20;1.55;;;23.20;41.90;;;;;;5051993;28;20036;-77
2021/06/04 02:42:25;;;;;;;5.45;1.10;;;23.00;42.50;;;;;;5065128;28;20033;-78
2021/06/04 02:45:06;;;;;;;6.55;2.42;;;23.10;42.20;;;;;;5068708;28;20029;-78
2021/06/04 02:47:43;;;;;;;5.72;1.65;;;23.10;42.30;;;;;;5063562;28;20108;-77
2021/06/04 02:50:15;;;;;;;4.35;2.03;;;23.00;42.60;;;;;;5067893;28;20036;-76
2021/06/04 02:52:44;;;;;;;4.70;2.15;;;23.00;42.70;;;;;;5065909;28;20471;-77
2021/06/04 02:55:16;;;;;;;5.65;1.33;;;23.00;42.70;;;;;;5062450;28;20398;-77
2021/06/04 02:57:42;;;;;;;10.45;2.47;;;22.90;42.60;;;;;;5066189;28;20024;-76
2021/06/04 03:00:32;;;;;;;6.63;1.58;;;22.90;42.70;;;;;;5063827;28;20043;-76
2021/06/04 03:02:59;;;;;;;9.65;3.80;;;22.80;42.80;;;;;;5069960;28;20036;-75
2021/06/04 03:05:30;;;;;;;6.53;1.27;;;22.80;43.10;;;;;;5064823;28;20041;-75
2021/06/04 03:07:57;;;;;;;4.90;1.85;;;22.60;43.20;;;;;;5067691;28;20028;-75
2021/06/04 03:10:32;;;;;;;9.63;1.63;;;22.40;43.50;;;;;;5063898;28;20047;-75
2021/06/04 03:12:59;;;;;;;4.60;1.85;;;22.50;43.60;;;;;;5067529;28;20363;-76
2021/06/04 03:15:37;;;;;;;6.28;1.85;;;22.40;43.50;;;;;;5065152;28;20017;-75
2021/06/04 03:18:06;;;;;;;5.75;1.50;;;22.20;43.70;;;;;;5066758;28;20024;-76
2021/06/04 03:20:36;;;;;;;3.47;1.38;;;22.10;44.20;;;;;;5061374;28;20032;-76
2021/06/04 03:23:08;;;;;;;11.35;2.72;;;22.20;44.40;;;;;;5065235;28;20023;-76
2021/06/04 03:25:47;;;;;;;8.48;2.05;;;22.20;44.00;;;;;;5065288;28;20021;-76
2021/06/04 03:28:17;;;;;;;9.38;2.28;;;21.90;44.40;;;;;;5065174;28;20029;-75
2021/06/04 03:30:46;;;;;;;9.95;3.20;;;21.80;44.50;;;;;;5063889;28;20040;-76
2021/06/04 03:33:20;;;;;;;6.35;1.90;;;21.50;45.00;;;;;;5063321;28;20038;-75
2021/06/04 03:35:47;;;;;;;6.47;1.70;;;21.50;44.90;;;;;;5067180;28;20037;-76
2021/06/04 03:38:16;;;;;;;5.85;1.98;;;21.30;45.50;;;;;;5061640;28;20020;-76
2021/06/04 03:40:43;;;;;;;10.57;1.70;;;21.30;45.60;;;;;;5063226;28;20448;-75
2021/06/04 03:43:14;;;;;;;11.05;1.60;;;21.10;45.90;;;;;;5061119;28;20039;-76
2021/06/04 03:45:42;;;;;;;3.45;1.67;;;21.00;46.20;;;;;;5049133;28;20020;-76
2021/06/04 03:48:12;;;;;;;6.43;1.75;;;20.90;46.10;;;;;;5070485;28;20391;-76
2021/06/04 03:50:40;;;;;;;2.88;1.65;;;20.80;46.20;;;;;;5058083;28;20042;-76
2021/06/04 03:53:09;;;;;;;5.55;1.60;;;20.70;46.70;;;;;;5078211;28;20025;-76
2021/06/04 03:55:38;;;;;;;4.40;1.48;;;20.60;47.30;;;;;;5078265;28;20021;-76
2021/06/04 03:58:05;;;;;;;6.40;1.98;;;20.60;47.10;;;;;;5063597;28;20025;-76
2021/06/04 04:00:46;;;;;;;7.13;2.05;;;20.60;47.00;;;;;;5059726;28;20078;-76
2021/06/04 04:03:15;;;;;;;6.28;1.80;;;20.50;46.90;;;;;;5057814;28;20111;-76
2021/06/04 04:05:42;;;;;;;6.38;1.63;;;20.50;46.80;;;;;;5066279;28;20078;-76
2021/06/04 04:08:10;;;;;;;6.60;1.42;;;20.50;46.80;;;;;;5053609;28;20048;-76
2021/06/04 04:10:36;;;;;;;7.85;2.22;;;20.50;46.30;;;;;;5066304;28;20494;-77
2021/06/04 04:13:04;;;;;;;4.53;1.40;;;20.50;46.00;;;;;;5068357;28;20079;-77
2021/06/04 04:15:31;;;;;;;7.07;2.00;;;20.40;47.10;;;;;;5053344;28;20032;-78
2021/06/04 04:17:59;;;;;;;4.57;1.50;;;20.40;46.90;;;;;;5067878;28;20024;-76
2021/06/04 04:20:30;;;;;;;9.98;2.22;;;20.40;46.80;;;;;;5067935;28;20458;-76
2021/06/04 04:22:58;;;;;;;4.32;2.25;;;20.40;46.70;;;;;;5066484;28;20032;-76
2021/06/04 04:25:28;;;;;;;9.30;2.92;;;20.40;47.10;;;;;;5086494;28;20038;-75
2021/06/04 04:27:56;;;;;;;10.30;2.83;;;20.30;47.60;;;;;;5086615;28;20024;-76
2021/06/04 04:30:24;;;;;;;6.00;1.83;;;20.30;47.30;;;;;;5095938;28;20009;-76
2021/06/04 04:32:50;;;;;;;6.03;2.00;;;20.40;48.00;;;;;;5073515;28;20024;-77
2021/06/04 04:35:22;;;;;;;8.63;2.00;;;20.40;48.60;;;;;;5075304;28;20043;-76
2021/06/04 04:37:49;;;;;;;8.57;1.75;;;20.40;47.80;;;;;;5067619;28;20036;-76
2021/06/04 04:40:18;;;;;;;6.13;2.20;;;20.30;47.90;;;;;;5048561;28;20368;-76
2021/06/04 04:42:44;;;;;;;7.47;2.83;;;20.40;48.70;;;;;;5065279;28;20029;-76
2021/06/04 04:45:16;;;;;;;9.73;1.95;;;20.40;49.10;;;;;;5069678;28;20017;-76
2021/06/04 04:47:43;;;;;;;7.68;2.63;;;20.20;49.10;;;;;;5066223;28;20575;-75
2021/06/04 04:50:11;;;;;;;9.95;2.33;;;20.00;48.60;;;;;;5066387;28;20468;-76
2021/06/04 04:52:37;;;;;;;9.40;1.90;;;19.90;48.60;;;;;;5047346;28;20089;-76
2021/06/04 04:55:06;;;;;;;6.13;2.30;;;19.90;49.70;;;;;;5065294;28;20107;-76
2021/06/04 04:57:32;;;;;;;9.07;3.10;;;19.80;49.90;;;;;;5051778;28;20035;-76
2021/06/04 04:59:59;;;;;;;4.63;1.63;;;19.80;49.70;;;;;;5080514;28;20031;-76
2021/06/04 05:02:25;;;;;;;6.68;1.58;;;19.60;49.50;;;;;;5062642;28;20126;-75
2021/06/04 05:04:53;;;;;;;9.95;2.65;;;19.70;50.10;;;;;;5071452;28;20032;-76
2021/06/04 05:07:19;;;;;;;9.10;2.05;;;19.60;50.30;;;;;;5074431;28;20021;-76
2021/06/04 05:09:46;;;;;;;6.07;1.92;;;19.40;50.70;;;;;;5079030;28;20367;-75
2021/06/04 05:12:12;;;;;;;5.07;2.90;;;19.50;50.40;;;;;;5081703;28;20442;-76
2021/06/04 05:14:40;;;;;;;2.28;1.63;;;19.40;50.50;;;;;;5058770;28;20021;-76
2021/06/04 05:17:07;;;;;;;12.18;1.70;;;19.30;51.10;;;;;;5074774;28;20024;-76
2021/06/04 05:19:34;;;;;;;7.70;1.90;;;19.30;51.30;;;;;;5074750;28;20096;-76
2021/06/04 05:22:00;;;;;;;7.70;2.13;;;19.30;51.40;;;;;;5074821;28;20032;-77
2021/06/04 05:24:28;;;;;;;4.05;1.35;;;19.10;51.80;;;;;;5040919;28;20083;-76
2021/06/04 05:26:54;;;;;;;4.63;2.75;;;19.10;51.60;;;;;;5069331;28;20543;-76
2021/06/04 05:29:21;;;;;;;9.38;2.00;;;19.10;50.70;;;;;;5052787;28;20070;-76
2021/06/04 05:31:48;;;;;;;6.72;1.50;;;19.20;51.20;;;;;;5056824;28;20379;-76
2021/06/04 05:34:14;;;;;;;5.47;1.52;;;19.10;51.20;;;;;;5076031;28;20116;-76
2021/06/04 05:36:41;;;;;;;8.07;2.20;;;19.10;51.20;;;;;;5076023;28;20414;-76
2021/06/04 05:39:14;;;;;;;7.35;1.63;;;19.10;51.10;;;;;;5073862;28;20024;-77
2021/06/04 05:41:43;;;;;;;9.82;2.88;;;19.10;50.10;;;;;;5075069;28;20078;-76
2021/06/04 05:44:14;;;;;;;11.32;2.67;;;19.10;51.40;;;;;;5074886;28;20024;-76
2021/06/04 05:46:43;;;;;;;4.53;1.75;;;19.00;51.10;;;;;;5075104;28;20036;-76
2021/06/04 05:49:09;;;;;;;7.43;1.98;;;19.10;50.40;;;;;;5073742;28;20035;-76
2021/06/04 05:51:36;;;;;;;6.53;3.38;;;19.10;50.40;;;;;;5056530;28;20090;-76
2021/06/04 05:54:04;;;;;;;7.32;2.53;;;19.20;51.00;;;;;;5073517;28;20024;-76
2021/06/04 05:56:31;;;;;;;5.63;2.17;;;19.20;51.60;;;;;;5073774;28;20414;-76
2021/06/04 05:58:57;;;;;;;3.08;1.50;;;18.90;52.20;;;;;;5074139;28;20039;-76
2021/06/04 06:01:28;;;;;;;8.80;2.25;;;18.90;51.20;;;;;;5055940;28;20020;-76
2021/06/04 06:03:55;;;;;;;5.28;1.90;;;19.00;51.30;;;;;;5077101;28;20085;-76
2021/06/04 06:06:21;;;;;;;11.30;2.72;;;18.90;51.50;;;;;;5081557;28;20341;-77
2021/06/04 06:08:48;;;;;;;6.78;2.22;;;18.80;52.10;;;;;;5092172;28;20497;-77
2021/06/04 06:11:17;;;;;;;8.20;2.63;;;18.80;52.30;;;;;;5059959;28;20138;-76
2021/06/04 06:13:44;;;;;;;9.50;3.33;;;18.70;52.30;;;;;;5073959;28;20161;-77
2021/06/04 06:16:10;;;;;;;4.00;1.67;;;18.80;52.00;;;;;;5056190;28;20025;-77
2021/06/04 06:18:36;;;;;;;4.35;1.60;;;18.80;52.50;;;;;;5077752;28;20028;-76
2021/06/04 06:21:04;;;;;;;8.73;4.13;;;18.70;52.80;;;;;;5074250;28;20075;-76
2021/06/04 06:23:33;;;;;;;7.05;1.85;;;18.80;52.10;;;;;;5055341;28;20056;-76
2021/06/04 06:26:06;;;;;;;10.10;2.47;;;18.90;52.00;;;;;;5071724;28;20040;-76
2021/06/04 06:28:35;;;;;;;7.90;2.50;;;19.00;53.80;;;;;;5063909;28;20075;-76
2021/06/04 06:31:05;;;;;;;7.68;2.83;;;18.90;53.40;;;;;;5073389;28;20103;-76
2021/06/04 06:33:31;;;;;;;7.55;3.10;;;18.90;52.40;;;;;;5076025;28;20024;-76
2021/06/04 06:36:02;;;;;;;11.82;2.70;;;18.80;52.00;;;;;;5083706;28;20026;-76
2021/06/04 06:38:29;;;;;;;4.28;1.77;;;18.90;52.20;;;;;;5056110;28;20025;-77
2021/06/04 06:40:58;;;;;;;11.23;3.50;;;18.90;52.70;;;;;;5074672;28;20028;-76
2021/06/04 06:43:28;;;;;;;2.75;1.50;;;18.70;53.90;;;;;;5053706;28;20029;-76
2021/06/04 06:45:56;;;;;;;8.85;2.60;;;18.50;55.50;;;;;;5073596;28;20732;-76
2021/06/04 06:48:23;;;;;;;7.40;2.40;;;18.60;54.10;;;;;;5073893;28;20025;-76
2021/06/04 06:50:50;;;;;;;8.80;3.92;;;18.60;54.60;;;;;;5056233;28;20033;-75
2021/06/04 06:53:22;;;;;;;8.30;2.95;;;18.40;56.50;;;;;;5071850;28;20016;-76
2021/06/04 06:55:49;;;;;;;8.43;2.78;;;18.40;55.70;;;;;;5053208;28;20032;-76
2021/06/04 06:58:17;;;;;;;14.63;2.13;;;18.40;55.50;;;;;;5071123;28;20036;-77
2021/06/04 07:00:47;;;;;;;6.32;1.90;;;18.30;55.90;;;;;;5072337;28;20038;-77
2021/06/04 07:03:17;;;;;;;7.57;2.72;;;18.30;56.20;;;;;;5076173;28;20027;-76
2021/06/04 07:05:44;;;;;;;13.02;2.25;;;18.40;55.20;;;;;;5074450;28;20053;-76
2021/06/04 07:08:12;;;;;;;14.07;3.75;;;18.40;56.30;;;;;;5087359;28;20068;-76
2021/06/04 07:10:39;;;;;;;10.35;3.08;;;18.50;54.70;;;;;;5070156;28;20033;-76
2021/06/04 07:13:10;;;;;;;9.60;3.05;;;18.50;56.10;;;;;;5076011;28;20020;-76
2021/06/04 07:15:36;;;;;;;9.50;2.45;;;18.40;55.20;;;;;;5089427;28;20027;-76
2021/06/04 07:18:03;;;;;;;3.97;2.22;;;18.50;55.70;;;;;;5061928;28;20017;-76
2021/06/04 07:20:34;;;;;;;13.05;2.50;;;18.50;55.90;;;;;;5070192;28;20103;-76
2021/06/04 07:23:03;;;;;;;9.05;2.28;;;18.50;56.50;;;;;;5069334;28;20035;-76
2021/06/04 07:25:33;;;;;;;11.48;2.90;;;18.40;56.30;;;;;;5073639;28;20020;-76
2021/06/04 07:27:59;;;;;;;12.07;3.92;;;18.30;56.50;;;;;;5074675;28;20039;-76
2021/06/04 07:30:30;;;;;;;7.10;2.33;;;18.20;56.30;;;;;;5070223;28;20100;-76
2021/06/04 07:33:01;;;;;;;9.80;2.88;;;18.30;57.70;;;;;;5072649;28;20517;-76
2021/06/04 07:35:30;;;;;;;6.18;3.38;;;18.10;57.30;;;;;;5062053;28;20083;-76
2021/06/04 07:37:57;;;;;;;10.43;3.33;;;18.00;57.40;;;;;;5070670;28;20017;-76
2021/06/04 07:40:26;;;;;;;6.47;2.22;;;18.00;58.00;;;;;;5059698;28;20162;-75
2021/06/04 07:42:53;;;;;;;13.52;3.70;;;17.90;57.40;;;;;;5074621;28;20032;-75
2021/06/04 07:45:23;;;;;;;6.78;1.90;;;17.80;57.00;;;;;;5077031;28;20033;-75
2021/06/04 07:47:49;;;;;;;32.15;4.72;;;17.80;57.40;;;;;;5075819;28;20444;-75
2021/06/04 07:50:16;;;;;;;16.40;3.17;;;17.80;58.10;;;;;;5058284;28;20033;-75
2021/06/04 07:52:42;;;;;;;13.18;4.75;;;17.90;58.80;;;;;;5057164;28;20029;-75
2021/06/04 07:55:13;;;;;;;10.77;3.47;;;17.80;57.50;;;;;;5075549;28;20056;-75
2021/06/04 07:57:40;;;;;;;9.70;2.97;;;17.80;58.10;;;;;;5057945;28;20149;-75
2021/06/04 08:00:12;;;;;;;9.70;2.40;;;17.70;59.00;;;;;;5073893;28;20456;-76
2021/06/04 08:02:39;;;;;;;14.63;3.17;;;17.70;58.40;;;;;;5059248;28;20032;-75
2021/06/04 08:05:06;;;;;;;23.90;3.75;;;17.60;58.80;;;;;;5059703;28;20029;-75
2021/06/04 08:07:33;;;;;;;11.77;3.10;;;17.70;58.20;;;;;;5058768;28;20119;-76
2021/06/04 08:09:59;;;;;;;8.85;3.17;;;17.60;58.40;;;;;;5076832;28;20031;-77
2021/06/04 08:12:30;;;;;;;22.45;3.42;;;17.50;58.60;;;;;;5065810;28;20158;-76
2021/06/04 08:15:21;;;;;;;11.98;3.88;;;17.50;58.90;;;;;;5076705;28;20463;-76
2021/06/04 08:17:48;;;;;;;9.32;3.58;;;17.30;59.20;;;;;;5070963;28;20156;-76
2021/06/04 08:20:22;;;;;;;9.02;4.15;;;17.40;58.90;;;;;;5050979;28;20028;-75
2021/06/04 08:22:52;;;;;;;14.63;4.13;;;17.40;58.90;;;;;;5076799;28;20028;-75
2021/06/04 08:25:20;;;;;;;9.98;3.17;;;17.20;58.50;;;;;;5076500;28;20347;-75
2021/06/04 08:27:47;;;;;;;17.80;4.60;;;17.10;58.30;;;;;;5075918;28;20081;-75
2021/06/04 08:30:15;;;;;;;13.95;3.10;;;17.00;58.70;;;;;;5074154;28;20066;-75
2021/06/04 08:32:41;;;;;;;16.23;3.63;;;17.00;58.70;;;;;;5075645;28;20017;-76
2021/06/04 08:35:11;;;;;;;12.00;2.72;;;17.30;60.00;;;;;;5058816;28;20029;-75
2021/06/04 08:37:38;;;;;;;10.27;2.70;;;17.30;60.30;;;;;;5058254;28;20445;-76
2021/06/04 08:40:13;;;;;;;13.25;2.80;;;17.30;60.00;;;;;;5055642;28;20115;-76
2021/06/04 08:43:19;;;;;;;7.53;1.77;;;17.30;59.90;;;;;;5075974;28;20039;-76
2021/06/04 08:45:53;;;;;;;20.38;2.55;;;17.40;60.20;;;;;;5076205;28;20058;-76
2021/06/04 08:48:32;;;;;;;10.02;1.88;;;17.20;59.90;;;;;;5074748;28;20117;-75
2021/06/04 08:51:36;;;;;;;10.02;3.97;;;17.30;61.30;;;;;;5070847;28;20033;-75
2021/06/04 08:54:36;;;;;;;16.10;3.47;;;17.20;61.60;;;;;;5058741;28;20094;-76
2021/06/04 08:57:28;;;;;;;6.53;1.67;;;17.00;61.80;;;;;;5072970;28;20021;-76
2021/06/04 08:59:57;;;;;;;9.70;2.17;;;16.90;61.10;;;;;;5075892;28;20046;-76
2021/06/04 09:02:40;;;;;;;6.47;2.60;;;16.90;62.00;;;;;;5076079;28;20052;-76
2021/06/04 09:05:15;;;;;;;14.75;2.63;;;17.00;61.90;;;;;;5058689;28;20043;-75
2021/06/04 09:07:46;;;;;;;4.68;1.80;;;16.90;61.50;;;;;;5038728;28;20021;-76
2021/06/04 09:10:40;;;;;;;14.15;2.38;;;16.80;62.60;;;;;;5062363;28;20012;-76
2021/06/04 09:13:18;;;;;;;11.65;2.63;;;16.60;61.70;;;;;;5077758;28;20048;-76
2021/06/04 09:15:45;;;;;;;10.80;2.13;;;16.70;63.00;;;;;;5076140;28;20533;-76
2021/06/04 09:18:30;;;;;;;8.15;2.08;;;16.70;62.90;;;;;;5070180;28;20066;-76
2021/06/04 09:21:00;;;;;;;8.82;1.40;;;16.60;62.50;;;;;;5056800;28;20380;-76
2021/06/04 09:23:40;;;;;;;6.97;5.28;;;16.50;63.10;;;;;;5085594;28;20070;-76
2021/06/04 09:26:13;;;;;;;6.13;1.90;;;16.60;63.70;;;;;;5084902;28;20085;-76
2021/06/04 09:28:51;;;;;;;9.55;2.65;;;16.50;63.10;;;;;;5062055;28;20028;-76
2021/06/04 09:31:23;;;;;;;7.90;2.15;;;16.60;63.70;;;;;;5076760;28;20521;-76
2021/06/04 09:34:11;;;;;;;6.37;2.10;;;16.30;63.20;;;;;;5076384;28;20025;-75
2021/06/04 09:37:13;;;;;;;5.85;2.03;;;16.20;63.40;;;;;;5080581;28;20036;-76
2021/06/04 09:40:18;;;;;;;2.65;1.38;;;16.40;64.20;;;;;;5052986;28;20043;-76
2021/06/04 09:42:56;;;;;;;2.90;1.55;;;16.40;63.30;;;;;;5063323;28;20060;-75
2021/06/04 09:45:43;;;;;;;7.18;1.67;;;16.30;63.40;;;;;;5074762;28;20032;-76
2021/06/04 09:48:30;;;;;;;7.45;1.60;;;16.30;62.90;;;;;;5075058;28;20024;-76
2021/06/04 09:51:26;;;;;;;10.57;3.45;;;16.30;62.60;;;;;;5068920;28;20024;-76
2021/06/04 09:53:54;;;;;;;8.05;1.52;;;16.20;63.50;;;;;;5074819;28;20033;-76
2021/06/04 09:56:32;;;;;;;14.30;2.58;;;16.20;63.60;;;;;;5074839;28;20028;-76
2021/06/04 09:59:04;;;;;;;4.95;2.35;;;16.10;62.50;;;;;;5074895;28;20024;-76
2021/06/04 10:01:32;;;;;;;;;;;16.20;62.90;;;;;;5074679;28;20020;-76
2021/06/04 10:04:04;;;;;;;9.50;1.85;;;16.10;62.80;;;;;;5075044;28;19904;-75
2021/06/04 10:06:45;;;;;;;6.78;1.73;;;16.10;63.70;;;;;;5074649;28;20028;-78
2021/06/04 10:09:23;;;;;;;2.45;1.42;;;16.00;62.90;;;;;;5074766;28;20491;-76
2021/06/04 10:11:57;;;;;;;3.25;1.45;;;16.10;63.90;;;;;;5068089;28;20044;-76
2021/06/04 10:14:45;;;;;;;7.20;1.75;;;16.00;65.40;;;;;;5074369;28;20016;-76
2021/06/04 10:17:46;;;;;;;7.30;1.92;;;16.00;64.10;;;;;;5074962;28;20383;-76
2021/06/04 10:20:31;;;;;;;1.80;1.10;;;16.00;64.30;;;;;;5074493;28;20029;-76
2021/06/04 10:23:14;;;;;;;4.03;1.48;;;16.00;63.70;;;;;;5057125;28;20359;-76
2021/06/04 10:25:43;;;;;;;4.15;1.30;;;16.10;64.40;;;;;;5066157;28;20025;-76
2021/06/04 10:28:36;;;;;;;2.53;1.30;;;16.00;64.60;;;;;;5056339;28;20032;-76
2021/06/04 10:31:25;;;;;;;9.18;1.75;;;16.10;64.30;;;;;;5074421;28;20025;-76
2021/06/04 10:34:28;;;;;;;1.88;1.35;;;16.10;65.00;;;;;;5051075;28;20509;-76
2021/06/04 10:36:57;;;;;;;6.60;1.83;;;16.10;63.60;;;;;;5074748;28;20056;-76
2021/06/04 10:39:32;;;;;;;7.63;2.20;;;15.90;66.30;;;;;;5073677;28;20048;-75
2021/06/04 10:42:08;;;;;;;4.60;1.42;;;16.00;64.90;;;;;;5056752;28;20082;-76
2021/06/04 10:45:09;;;;;;;6.35;1.88;;;16.20;65.30;;;;;;5056626;28;20449;-76
2021/06/04 10:47:44;;;;;;;3.55;1.50;;;16.10;64.70;;;;;;5074132;28;20455;-76
2021/06/04 10:50:21;;;;;;;5.60;1.70;;;16.20;64.50;;;;;;5073838;28;20463;-76
2021/06/04 10:53:28;;;;;;;5.22;1.33;;;16.10;64.50;;;;;;5057509;28;20466;-76
2021/06/04 10:56:00;;;;;;;2.33;2.03;;;16.00;65.10;;;;;;5078247;28;20025;-76
2021/06/04 10:58:47;;;;;;;6.97;1.83;;;16.00;65.90;;;;;;5078099;28;20464;-76
2021/06/04 11:01:19;;;;;;;10.77;2.45;;;16.00;64.90;;;;;;5078349;28;20348;-76
2021/06/04 11:03:59;;;;;;;5.93;1.45;;;15.90;65.60;;;;;;5078377;28;20020;-76
2021/06/04 11:06:40;;;;;;;9.88;1.48;;;15.90;66.50;;;;;;5077933;28;20044;-76
2021/06/04 11:09:30;;;;;;;2.10;1.42;;;15.80;66.00;;;;;;5078058;28;20073;-76
2021/06/04 11:12:14;;;;;;;5.38;1.50;;;15.80;66.60;;;;;;5060356;28;20390;-76
2021/06/04 11:15:11;;;;;;;7.50;2.72;;;15.70;66.70;;;;;;5078064;28;20417;-76
2021/06/04 11:17:56;;;;;;;5.78;1.90;;;15.60;66.70;;;;;;5078104;28;20020;-76
2021/06/04 11:20:49;;;;;;;8.20;2.65;;;15.80;66.50;;;;;;5077738;28;20032;-75
2021/06/04 11:23:36;;;;;;;;;;;15.90;67.30;;;;;;5060823;28;20055;-75
2021/06/04 11:26:07;;;;;;;7.50;3.10;;;15.90;65.90;;;;;;5036988;28;19918;-75
2021/06/04 11:28:52;;;;;;;7.38;1.70;;;15.80;66.70;;;;;;5077786;28;20440;-76
2021/06/04 11:31:49;;;;;;;7.05;2.13;;;15.80;66.90;;;;;;5077702;28;20366;-75
2021/06/04 11:34:43;;;;;;;7.43;1.70;;;15.70;65.90;;;;;;5077487;28;20048;-76
2021/06/04 11:37:16;;;;;;;6.45;2.17;;;15.70;66.50;;;;;;5060168;28;20066;-76
2021/06/04 11:39:45;;;;;;;;;;;15.60;67.30;;;;;;5077821;28;20036;-76
2021/06/04 11:42:18;;;;;;;4.35;1.35;;;15.60;65.80;;;;;;5077602;28;19962;-76
2021/06/04 11:44:49;;;;;;;3.65;1.35;;;15.60;65.80;;;;;;5069775;28;20025;-75
2021/06/04 11:47:18;;;;;;;2.78;1.27;;;15.60;67.10;;;;;;5068436;28;20032;-76
2021/06/04 11:49:53;;;;;;;2.22;1.10;;;15.50;68.80;;;;;;5077239;28;20466;-76
2021/06/04 11:52:37;;;;;;;2.72;1.08;;;15.40;68.10;;;;;;5066007;28;20031;-75
2021/06/04 11:55:23;;;;;;;5.00;1.80;;;15.40;67.70;;;;;;5059564;28;20020;-75
2021/06/04 11:58:00;;;;;;;3.70;2.10;;;15.50;67.10;;;;;;5059199;28;20036;-76
2021/06/04 12:00:27;;;;;;;1.77;1.10;;;15.50;67.20;;;;;;5076987;28;20052;-75
2021/06/04 12:03:09;;;;;;;2.97;1.88;;;15.50;66.70;;;;;;5077436;28;20040;-76
2021/06/04 12:05:51;;;;;;;2.87;1.30;;;15.50;66.10;;;;;;5058456;28;20040;-76
2021/06/04 12:08:20;;;;;;;2.17;1.42;;;15.60;66.30;;;;;;5076915;28;20028;-77
2021/06/04 12:10:47;;;;;;;5.93;1.20;;;15.60;66.60;;;;;;5077024;28;20329;-76
2021/06/04 12:13:48;;;;;;;2.40;1.52;;;15.50;66.70;;;;;;5076413;28;20028;-76
2021/06/04 12:16:29;;;;;;;2.90;1.83;;;15.50;64.70;;;;;;5077075;28;20021;-76
2021/06/04 12:19:24;;;;;;;4.60;1.80;;;15.60;65.90;;;;;;5076095;28;20371;-75
2021/06/04 12:21:51;;;;;;;1.02;0.93;;;15.60;64.70;;;;;;5076420;28;20044;-75
2021/06/04 12:24:18;;;;;;;4.45;1.00;;;15.60;65.60;;;;;;5076636;28;20040;-75
2021/06/04 12:26:47;;;;;;;0.95;0.95;;;15.80;66.50;;;;;;5059062;28;20033;-75
2021/06/04 12:29:22;;;;;;;3.17;1.65;;;15.80;65.90;;;;;;5076169;28;20482;-76
2021/06/04 12:31:53;;;;;;;1.85;1.10;;;15.70;66.50;;;;;;5072645;28;20341;-76
2021/06/04 12:34:38;;;;;;;6.32;1.70;;;15.70;66.00;;;;;;5077055;28;20403;-75
2021/06/04 12:37:23;;;;;;;2.92;1.70;;;15.60;66.90;;;;;;5076392;28;20054;-75
2021/06/04 12:40:08;;;;;;;1.20;1.00;;;15.70;65.90;;;;;;5058914;28;20035;-76
2021/06/04 12:42:42;;;;;;;2.33;1.30;;;15.60;65.90;;;;;;5076653;28;20103;-75
2021/06/04 12:45:32;;;;;;;4.55;1.08;;;15.80;67.30;;;;;;5075729;28;20102;-76
2021/06/04 12:48:17;;;;;;;4.35;1.35;;;15.60;67.50;;;;;;5076387;28;20025;-76
2021/06/04 12:50:47;;;;;;;0.90;0.90;;;15.70;67.80;;;;;;5066821;28;20467;-76
2021/06/04 12:53:25;;;;;;;1.45;1.27;;;15.70;67.20;;;;;;5076507;28;20025;-75
2021/06/04 12:55:58;;;;;;;0.98;0.98;;;15.60;67.60;;;;;;5076322;28;20081;-75
2021/06/04 12:58:59;;;;;;;3.35;1.33;;;15.70;68.10;;;;;;5076227;28;20093;-75
2021/06/04 13:01:28;;;;;;;2.30;1.17;;;15.50;67.70;;;;;;5045876;28;20033;-75
2021/06/04 13:03:59;;;;;;;0.82;0.80;;;15.40;68.30;;;;;;5075834;28;20424;-75
2021/06/04 13:06:56;;;;;;;1.45;1.35;;;15.50;68.90;;;;;;5076179;28;20029;-75
2021/06/04 13:09:41;;;;;;;2.55;1.27;;;15.50;68.60;;;;;;5022987;28;20040;-75
2021/06/04 13:12:20;;;;;;;6.15;1.65;;;15.50;68.40;;;;;;5048664;28;20044;-76
2021/06/04 13:14:49;;;;;;;3.50;1.02;;;15.40;68.80;;;;;;5075357;28;20020;-75
2021/06/04 13:17:30;;;;;;;0.90;0.90;;;15.30;69.20;;;;;;5075542;28;20047;-75
2021/06/04 13:20:19;;;;;;;2.95;1.25;;;15.30;68.80;;;;;;5075693;28;20479;-75
2021/06/04 13:23:04;;;;;;;2.33;0.93;;;15.40;68.60;;;;;;5075456;28;20037;-76